createdAt,value
2018-09-28T00:00:16.494Z,8.50
2018-09-28T00:02:44.463Z,8.40
2018-09-28T00:05:12.413Z,8.40
2018-09-28T00:07:40.595Z,8.40
2018-09-28T00:10:08.609Z,8.40
2018-09-28T00:12:36.681Z,8.30
2018-09-28T00:15:05.280Z,8.30
2018-09-28T00:17:33.338Z,8.20
2018-09-28T00:20:01.477Z,8.20
2018-09-28T00:22:29.398Z,8.10
2018-09-28T00:24:57.379Z,8.10
2018-09-28T00:27:25.342Z,8.10
2018-09-28T00:29:53.498Z,8.10
2018-09-28T00:32:21.542Z,8.10
2018-09-28T00:34:49.551Z,8.10
2018-09-28T00:37:17.402Z,8.10
2018-09-28T00:39:45.575Z,8.00
2018-09-28T00:42:13.480Z,8.00
2018-09-28T00:44:41.755Z,7.90
2018-09-28T00:47:09.723Z,7.90
2018-09-28T00:49:37.787Z,7.90
2018-09-28T00:52:05.742Z,7.80
2018-09-28T00:54:33.872Z,7.80
2018-09-28T00:57:01.984Z,7.70
2018-09-28T00:59:30.020Z,7.70
2018-09-28T01:01:57.983Z,7.60
2018-09-28T01:04:25.956Z,7.60
2018-09-28T01:06:53.956Z,7.60
2018-09-28T01:09:21.847Z,7.60
2018-09-28T01:11:49.770Z,7.60
2018-09-28T01:14:17.686Z,7.50
2018-09-28T01:16:45.575Z,7.50
2018-09-28T01:19:13.593Z,7.40
2018-09-28T01:21:41.841Z,7.40
2018-09-28T01:24:09.864Z,7.30
2018-09-28T01:26:38.127Z,7.30
2018-09-28T01:29:06.110Z,7.30
2018-09-28T01:31:34.007Z,7.20
2018-09-28T01:34:01.951Z,7.20
2018-09-28T01:36:29.973Z,7.20
2018-09-28T01:38:57.902Z,7.10
2018-09-28T01:41:25.921Z,7.10
2018-09-28T01:43:53.994Z,7.10
2018-09-28T01:46:21.934Z,7.00
2018-09-28T01:48:49.954Z,7.00
2018-09-28T01:51:18.094Z,7.00
2018-09-28T01:53:46.103Z,7.00
2018-09-28T01:56:14.403Z,7.00
2018-09-28T01:58:42.313Z,6.90
2018-09-28T02:01:10.410Z,6.90
2018-09-28T02:03:38.436Z,6.90
2018-09-28T02:06:06.376Z,6.90
2018-09-28T02:08:34.267Z,6.80
2018-09-28T02:11:02.283Z,6.80
2018-09-28T02:13:30.314Z,6.80
2018-09-28T02:15:58.259Z,6.80
2018-09-28T02:18:26.254Z,6.80
2018-09-28T02:20:54.216Z,6.80
2018-09-28T02:23:22.235Z,6.70
2018-09-28T02:25:50.071Z,6.80
2018-09-28T02:28:17.956Z,6.70
2018-09-28T02:30:46.008Z,6.80
2018-09-28T02:33:14.118Z,6.90
2018-09-28T02:35:42.218Z,6.90
2018-09-28T02:38:10.175Z,6.80
2018-09-28T02:40:38.805Z,6.70
2018-09-28T02:43:06.905Z,6.70
2018-09-28T02:45:34.938Z,6.70
2018-09-28T02:48:03.208Z,6.60
2018-09-28T02:50:31.138Z,6.60
2018-09-28T02:52:59.143Z,6.60
2018-09-28T02:55:27.147Z,6.60
2018-09-28T02:57:55.406Z,6.60
2018-09-28T03:00:23.318Z,6.60
2018-09-28T03:02:51.328Z,6.50
2018-09-28T03:05:19.362Z,6.50
2018-09-28T03:07:47.373Z,6.50
2018-09-28T03:10:15.371Z,6.50
2018-09-28T03:12:43.584Z,6.40
2018-09-28T03:15:11.583Z,6.40
2018-09-28T03:17:39.703Z,6.40
2018-09-28T03:20:07.939Z,6.40
2018-09-28T03:22:36.442Z,6.40
2018-09-28T03:25:04.373Z,6.40
2018-09-28T03:27:32.388Z,6.30
2018-09-28T03:30:00.529Z,6.30
2018-09-28T03:32:28.602Z,6.30
2018-09-28T03:34:56.564Z,6.30
2018-09-28T03:37:24.576Z,6.20
2018-09-28T03:39:52.442Z,6.20
2018-09-28T03:42:20.431Z,6.20
2018-09-28T03:44:48.349Z,6.10
2018-09-28T03:47:16.300Z,6.10
2018-09-28T03:49:44.274Z,6.00
2018-09-28T03:52:12.189Z,6.00
2018-09-28T03:54:40.220Z,6.00
2018-09-28T03:57:08.348Z,5.90
2018-09-28T03:59:36.455Z,5.90
2018-09-28T04:02:04.353Z,5.90
2018-09-28T04:04:32.422Z,5.90
2018-09-28T04:07:00.494Z,6.00
2018-09-28T04:09:28.359Z,6.00
2018-09-28T04:11:56.452Z,6.00
2018-09-28T04:14:24.371Z,6.00
2018-09-28T04:16:52.795Z,5.90
2018-09-28T04:19:20.833Z,5.90
2018-09-28T04:21:55.902Z,5.90
2018-09-28T04:24:23.843Z,5.80
2018-09-28T04:26:51.746Z,5.90
2018-09-28T04:29:19.848Z,6.00
2018-09-28T04:31:47.822Z,6.10
2018-09-28T04:34:15.717Z,6.20
2018-09-28T04:36:43.788Z,6.30
2018-09-28T04:39:11.839Z,6.30
2018-09-28T04:41:39.826Z,6.50
2018-09-28T04:44:07.792Z,6.60
2018-09-28T04:46:35.827Z,6.70
2018-09-28T04:49:04.567Z,6.70
2018-09-28T04:51:32.751Z,6.80
2018-09-28T04:54:00.789Z,6.90
2018-09-28T04:56:28.880Z,7.00
2018-09-28T04:58:56.933Z,7.10
2018-09-28T05:01:25.024Z,7.10
2018-09-28T05:03:52.958Z,7.20
2018-09-28T05:06:21.229Z,7.20
2018-09-28T05:08:49.119Z,7.30
2018-09-28T05:11:17.089Z,7.30
2018-09-28T05:13:45.067Z,7.40
2018-09-28T05:16:13.340Z,7.40
2018-09-28T05:18:41.431Z,7.50
2018-09-28T05:21:09.303Z,7.60
2018-09-28T05:23:37.351Z,7.60
2018-09-28T05:26:05.923Z,7.70
2018-09-28T05:28:33.814Z,7.80
2018-09-28T05:31:01.916Z,7.90
2018-09-28T05:33:29.930Z,7.90
2018-09-28T05:35:57.982Z,8.00
2018-09-28T05:38:26.177Z,8.00
2018-09-28T05:40:54.152Z,8.10
2018-09-28T05:43:22.209Z,8.20
2018-09-28T05:45:50.595Z,8.10
2018-09-28T05:48:18.789Z,8.20
2018-09-28T05:50:46.929Z,8.20
2018-09-28T05:53:14.927Z,8.20
2018-09-28T05:55:43.176Z,8.30
2018-09-28T05:58:16.505Z,8.30
2018-09-28T06:00:49.645Z,8.20
2018-09-28T06:03:20.163Z,8.10
2018-09-28T06:05:53.327Z,8.00
2018-09-28T06:08:21.477Z,8.10
2018-09-28T06:10:49.814Z,8.20
2018-09-28T06:13:18.368Z,8.30
2018-09-28T06:15:46.388Z,8.30
2018-09-28T06:18:14.384Z,8.40
2018-09-28T06:20:42.475Z,8.50
2018-09-28T06:23:10.512Z,8.50
2018-09-28T06:25:38.681Z,8.60
2018-09-28T06:28:06.867Z,8.70
2018-09-28T06:30:34.893Z,8.70
2018-09-28T06:33:02.907Z,8.70
2018-09-28T06:35:30.931Z,8.70
2018-09-28T06:37:58.984Z,8.70
2018-09-28T06:40:27.092Z,8.70
2018-09-28T06:42:55.333Z,8.70
2018-09-28T06:45:23.162Z,8.80
2018-09-28T06:47:51.158Z,8.80
2018-09-28T06:50:19.357Z,8.80
2018-09-28T06:52:47.458Z,8.70
2018-09-28T06:55:15.620Z,8.70
2018-09-28T06:57:44.070Z,8.70
2018-09-28T07:00:12.223Z,8.60
2018-09-28T07:02:40.350Z,8.60
2018-09-28T07:05:08.742Z,8.60
2018-09-28T07:07:36.692Z,8.60
2018-09-28T07:10:04.682Z,8.60
2018-09-28T07:12:32.620Z,8.60
2018-09-28T07:15:00.600Z,8.80
2018-09-28T07:17:28.666Z,8.90
2018-09-28T07:19:56.590Z,9.00
2018-09-28T07:22:24.522Z,9.10
2018-09-28T07:24:52.543Z,9.10
2018-09-28T07:27:20.462Z,9.10
2018-09-28T07:29:48.491Z,9.00
2018-09-28T07:32:16.585Z,9.00
2018-09-28T07:34:44.590Z,9.00
2018-09-28T07:37:12.871Z,9.00
2018-09-28T07:39:41.234Z,9.10
2018-09-28T07:42:09.402Z,9.20
2018-09-28T07:44:37.427Z,9.20
2018-09-28T07:47:05.810Z,9.20
2018-09-28T07:49:33.813Z,9.30
2018-09-28T07:52:01.904Z,9.30
2018-09-28T07:54:29.794Z,9.30
2018-09-28T07:56:57.873Z,9.40
2018-09-28T07:59:25.979Z,9.30
2018-09-28T08:01:54.101Z,9.30
2018-09-28T08:04:22.268Z,9.30
2018-09-28T08:06:50.315Z,9.30
2018-09-28T08:09:18.879Z,9.30
2018-09-28T08:11:46.846Z,9.20
2018-09-28T08:14:14.926Z,9.20
2018-09-28T08:16:42.962Z,9.20
2018-09-28T08:19:10.985Z,9.20
2018-09-28T08:21:39.005Z,9.00
2018-09-28T08:24:07.224Z,9.10
2018-09-28T08:26:35.279Z,9.10
2018-09-28T08:29:03.273Z,9.10
2018-09-28T08:31:31.325Z,9.00
2018-09-28T08:33:59.486Z,9.00
2018-09-28T08:36:27.784Z,9.10
2018-09-28T08:38:55.829Z,9.20
2018-09-28T08:41:23.805Z,9.20
2018-09-28T08:43:51.664Z,9.20
2018-09-28T08:46:19.995Z,9.30
2018-09-28T08:48:48.011Z,9.30
2018-09-28T08:51:16.011Z,9.30
2018-09-28T08:53:43.939Z,9.30
2018-09-28T08:56:12.053Z,9.30
2018-09-28T08:58:40.154Z,9.30
2018-09-28T09:01:08.210Z,9.30
2018-09-28T09:03:36.110Z,9.30
2018-09-28T09:06:04.114Z,9.40
2018-09-28T09:08:32.378Z,9.40
2018-09-28T09:11:00.862Z,9.50
2018-09-28T09:13:28.931Z,9.60
2018-09-28T09:15:56.960Z,9.70
2018-09-28T09:18:24.995Z,9.70
2018-09-28T09:20:53.147Z,9.70
2018-09-28T09:23:21.326Z,9.80
2018-09-28T09:25:49.215Z,9.80
2018-09-28T09:28:17.138Z,9.80
2018-09-28T09:30:45.276Z,9.90
2018-09-28T09:33:13.307Z,9.80
2018-09-28T09:35:41.543Z,9.90
2018-09-28T09:38:09.512Z,10.00
2018-09-28T09:40:37.618Z,10.00
2018-09-28T09:43:05.787Z,10.00
2018-09-28T09:45:33.815Z,10.10
2018-09-28T09:48:01.831Z,10.10
2018-09-28T09:50:29.956Z,10.10
2018-09-28T09:52:58.216Z,10.20
2018-09-28T09:55:26.164Z,10.20
2018-09-28T09:57:54.423Z,10.20
2018-09-28T10:00:27.638Z,10.20
2018-09-28T10:03:01.640Z,10.10
2018-09-28T10:05:30.088Z,10.00
2018-09-28T10:07:58.100Z,10.00
2018-09-28T10:10:25.879Z,10.00
2018-09-28T10:12:53.747Z,10.00
2018-09-28T10:15:21.555Z,10.10
2018-09-28T10:17:49.442Z,10.10
2018-09-28T10:20:17.379Z,10.20
2018-09-28T10:22:45.307Z,10.40
2018-09-28T10:25:13.324Z,10.50
2018-09-28T10:27:41.102Z,10.60
2018-09-28T10:30:08.951Z,10.70
2018-09-28T10:32:36.896Z,10.90
2018-09-28T10:35:04.771Z,11.00
2018-09-28T10:37:32.699Z,11.20
2018-09-28T10:40:00.416Z,11.20
2018-09-28T10:42:28.267Z,11.40
2018-09-28T10:44:56.018Z,11.40
2018-09-28T10:47:23.859Z,11.50
2018-09-28T10:49:51.648Z,11.60
2018-09-28T10:52:19.595Z,11.60
2018-09-28T10:54:47.247Z,11.70
2018-09-28T10:57:15.192Z,11.70
2018-09-28T10:59:42.973Z,11.80
2018-09-28T11:02:10.953Z,11.90
2018-09-28T11:04:38.932Z,12.10
2018-09-28T11:07:06.661Z,12.20
2018-09-28T11:09:34.599Z,12.10
2018-09-28T11:12:02.320Z,12.10
2018-09-28T11:14:30.170Z,12.20
2018-09-28T11:16:57.919Z,12.00
2018-09-28T11:19:25.800Z,12.20
2018-09-28T11:21:53.704Z,12.30
2018-09-28T11:24:21.763Z,12.30
2018-09-28T11:26:49.737Z,12.30
2018-09-28T11:29:17.628Z,12.40
2018-09-28T11:31:45.453Z,12.40
2018-09-28T11:34:13.338Z,12.50
2018-09-28T11:36:41.259Z,12.50
2018-09-28T11:39:09.094Z,12.70
2018-09-28T11:41:36.988Z,12.80
2018-09-28T11:44:04.853Z,12.80
2018-09-28T11:46:32.908Z,12.90
2018-09-28T11:49:01.090Z,12.90
2018-09-28T11:51:28.921Z,13.00
2018-09-28T11:53:56.833Z,13.20
2018-09-28T11:56:24.728Z,13.30
2018-09-28T11:58:52.670Z,13.50
2018-09-28T12:01:20.694Z,13.70
2018-09-28T12:03:48.524Z,13.90
2018-09-28T12:06:16.636Z,14.20
2018-09-28T12:08:44.536Z,14.20
2018-09-28T12:11:12.444Z,14.40
2018-09-28T12:13:40.251Z,14.60
2018-09-28T12:16:08.138Z,14.70
2018-09-28T12:18:36.175Z,14.80
2018-09-28T12:21:04.079Z,14.80
2018-09-28T12:23:32.109Z,14.80
2018-09-28T12:26:00.104Z,14.80
2018-09-28T12:28:28.057Z,14.70
2018-09-28T12:30:55.940Z,14.90
2018-09-28T12:33:24.103Z,14.90
2018-09-28T12:35:51.926Z,15.10
2018-09-28T12:38:19.984Z,15.20
2018-09-28T12:40:47.907Z,15.20
2018-09-28T12:43:15.794Z,15.30
2018-09-28T12:45:43.636Z,15.10
2018-09-28T12:48:11.588Z,14.90
2018-09-28T12:50:39.677Z,14.90
2018-09-28T12:53:07.629Z,14.70
2018-09-28T12:55:35.505Z,14.70
2018-09-28T12:58:03.471Z,14.70
2018-09-28T13:00:31.368Z,14.40
2018-09-28T13:02:59.180Z,14.50
2018-09-28T13:05:27.076Z,14.40
2018-09-28T13:07:55.118Z,14.40
2018-09-28T13:10:23.209Z,14.20
2018-09-28T13:12:51.224Z,14.30
2018-09-28T13:15:19.114Z,14.30
2018-09-28T13:17:47.320Z,14.30
2018-09-28T13:20:15.345Z,14.10
2018-09-28T13:22:43.242Z,14.30
2018-09-28T13:25:11.108Z,14.40
2018-09-28T13:27:39.388Z,14.40
2018-09-28T13:30:07.532Z,14.50
2018-09-28T13:32:35.679Z,14.50
2018-09-28T13:35:03.959Z,14.40
2018-09-28T13:37:31.808Z,14.40
2018-09-28T13:39:59.858Z,14.30
2018-09-28T13:42:27.999Z,14.50
2018-09-28T13:44:55.807Z,14.70
2018-09-28T13:47:24.089Z,14.80
2018-09-28T13:49:52.267Z,14.80
2018-09-28T13:52:20.125Z,15.00
2018-09-28T13:54:48.136Z,15.10
2018-09-28T13:57:16.060Z,15.20
2018-09-28T13:59:43.980Z,15.20
2018-09-28T14:02:12.402Z,15.20
2018-09-28T14:04:40.290Z,15.10
2018-09-28T14:07:08.588Z,15.10
2018-09-28T14:09:36.301Z,14.90
2018-09-28T14:12:04.136Z,14.80
2018-09-28T14:14:32.176Z,14.90
2018-09-28T14:17:00.280Z,14.90
2018-09-28T14:19:28.191Z,14.70
2018-09-28T14:21:56.139Z,14.70
2018-09-28T14:24:24.329Z,14.80
2018-09-28T14:26:52.099Z,14.90
2018-09-28T14:29:20.087Z,14.90
2018-09-28T14:31:47.972Z,14.70
2018-09-28T14:34:15.937Z,14.70
2018-09-28T14:36:43.967Z,14.60
2018-09-28T14:39:11.845Z,14.60
2018-09-28T14:41:40.058Z,14.50
2018-09-28T14:44:08.614Z,14.30
2018-09-28T14:46:36.660Z,14.30
2018-09-28T14:49:04.567Z,14.50
2018-09-28T14:51:32.803Z,14.60
2018-09-28T14:54:00.906Z,14.70
2018-09-28T14:56:28.695Z,14.90
2018-09-28T14:58:56.730Z,14.90
2018-09-28T15:01:25.111Z,14.60
2018-09-28T15:03:52.924Z,14.50
2018-09-28T15:06:20.789Z,14.60
2018-09-28T15:08:48.791Z,14.70
2018-09-28T15:11:16.824Z,14.90
2018-09-28T15:13:44.664Z,14.80
2018-09-28T15:16:12.699Z,14.70
2018-09-28T15:18:40.653Z,14.40
2018-09-28T15:21:08.912Z,14.30
2018-09-28T15:23:37.111Z,14.20
2018-09-28T15:26:05.024Z,14.30
2018-09-28T15:28:33.096Z,14.30
2018-09-28T15:31:01.118Z,14.40
2018-09-28T15:33:29.145Z,14.50
2018-09-28T15:35:57.238Z,14.50
2018-09-28T15:38:25.307Z,14.60
2018-09-28T15:40:53.395Z,14.60
2018-09-28T15:43:21.461Z,14.50
2018-09-28T15:45:49.620Z,14.60
2018-09-28T15:48:17.877Z,14.40
2018-09-28T15:50:46.040Z,14.20
2018-09-28T15:53:14.056Z,14.10
2018-09-28T15:55:41.954Z,14.10
2018-09-28T15:58:09.818Z,14.10
2018-09-28T16:00:37.897Z,14.00
2018-09-28T16:03:06.127Z,13.90
2018-09-28T16:05:34.241Z,13.80
2018-09-28T16:08:02.167Z,13.80
2018-09-28T16:10:30.189Z,13.90
2018-09-28T16:12:58.239Z,13.90
2018-09-28T16:15:26.501Z,13.90
2018-09-28T16:17:54.414Z,14.00
2018-09-28T16:20:22.238Z,13.90
2018-09-28T16:22:50.233Z,13.70
2018-09-28T16:25:18.229Z,13.70
2018-09-28T16:27:46.505Z,13.60
2018-09-28T16:30:14.486Z,13.60
2018-09-28T16:32:42.662Z,13.50
2018-09-28T16:35:10.586Z,13.50
2018-09-28T16:37:38.622Z,13.50
2018-09-28T16:40:06.699Z,13.40
2018-09-28T16:42:34.770Z,13.40
2018-09-28T16:45:02.792Z,13.40
2018-09-28T16:47:30.710Z,13.40
2018-09-28T16:49:58.790Z,13.50
2018-09-28T16:52:26.612Z,13.50
2018-09-28T16:54:54.721Z,13.50
2018-09-28T16:57:22.685Z,13.40
2018-09-28T16:59:50.666Z,13.50
2018-09-28T17:02:18.608Z,13.60
2018-09-28T17:04:46.730Z,13.60
2018-09-28T17:07:14.691Z,13.60
2018-09-28T17:09:42.620Z,13.70
2018-09-28T17:12:10.425Z,13.60
2018-09-28T17:14:38.625Z,13.60
2018-09-28T17:17:06.643Z,13.50
2018-09-28T17:19:34.609Z,13.50
2018-09-28T17:22:02.630Z,13.50
2018-09-28T17:24:30.786Z,13.50
2018-09-28T17:26:58.753Z,13.40
2018-09-28T17:29:26.816Z,13.30
2018-09-28T17:31:54.764Z,13.20
2018-09-28T17:34:22.608Z,13.20
2018-09-28T17:36:50.478Z,13.20
2018-09-28T17:39:18.374Z,13.20
2018-09-28T17:41:46.297Z,13.10
2018-09-28T17:44:14.243Z,13.10
2018-09-28T17:46:42.212Z,13.00
2018-09-28T17:49:10.138Z,13.00
2018-09-28T17:51:38.124Z,13.00
2018-09-28T17:54:06.325Z,13.00
2018-09-28T17:56:34.255Z,13.00
2018-09-28T17:59:02.164Z,12.90
2018-09-28T18:01:30.248Z,12.80
2018-09-28T18:03:58.447Z,12.80
2018-09-28T18:06:26.328Z,12.80
2018-09-28T18:08:54.480Z,12.80
2018-09-28T18:11:22.462Z,12.70
2018-09-28T18:13:50.513Z,12.60
2018-09-28T18:16:18.739Z,12.70
2018-09-28T18:18:46.833Z,12.60
2018-09-28T18:21:14.941Z,12.50
2018-09-28T18:23:43.160Z,12.50
2018-09-28T18:26:11.068Z,12.40
2018-09-28T18:28:39.377Z,12.40
2018-09-28T18:31:07.655Z,12.40
2018-09-28T18:33:35.673Z,12.40
2018-09-28T18:36:04.001Z,12.30
2018-09-28T18:38:32.185Z,12.20
2018-09-28T18:41:00.205Z,12.10
2018-09-28T18:43:28.322Z,12.10
2018-09-28T18:45:56.649Z,12.00
2018-09-28T18:48:24.711Z,12.00
2018-09-28T18:50:53.280Z,11.90
2018-09-28T18:53:21.601Z,11.80
2018-09-28T18:55:49.754Z,11.80
2018-09-28T18:58:17.941Z,11.70
2018-09-28T19:00:46.239Z,11.70
2018-09-28T19:03:14.872Z,11.70
2018-09-28T19:05:42.949Z,11.60
2018-09-28T19:08:10.984Z,11.50
2018-09-28T19:10:39.037Z,11.50
2018-09-28T19:13:07.253Z,11.40
2018-09-28T19:15:35.253Z,11.40
2018-09-28T19:18:03.580Z,11.30
2018-09-28T19:20:32.045Z,11.20
2018-09-28T19:23:00.323Z,11.10
2018-09-28T19:25:28.613Z,11.10
2018-09-28T19:27:56.688Z,11.00
2018-09-28T19:30:24.848Z,11.00
2018-09-28T19:32:52.745Z,10.90
2018-09-28T19:35:21.412Z,10.90
2018-09-28T19:37:49.588Z,10.70
2018-09-28T19:40:17.834Z,10.60
2018-09-28T19:42:46.172Z,10.50
2018-09-28T19:45:14.295Z,10.40
2018-09-28T19:47:42.555Z,10.30
2018-09-28T19:50:10.903Z,10.10
2018-09-28T19:52:39.355Z,9.90
2018-09-28T19:55:07.644Z,9.80
2018-09-28T19:57:35.816Z,9.70
2018-09-28T20:00:04.217Z,9.60
2018-09-28T20:02:32.370Z,9.50
2018-09-28T20:05:00.738Z,9.40
2018-09-28T20:07:28.946Z,9.30
2018-09-28T20:09:57.224Z,9.20
2018-09-28T20:12:25.097Z,9.00
2018-09-28T20:14:53.499Z,8.90
2018-09-28T20:17:21.694Z,8.80
2018-09-28T20:19:50.034Z,8.80
2018-09-28T20:22:18.247Z,8.80
2018-09-28T20:24:46.378Z,8.70
2018-09-28T20:27:14.273Z,8.70
2018-09-28T20:29:42.700Z,8.60
2018-09-28T20:32:10.568Z,8.50
2018-09-28T20:34:38.541Z,8.50
2018-09-28T20:37:06.685Z,8.50
2018-09-28T20:39:35.017Z,8.40
2018-09-28T20:42:03.062Z,8.40
2018-09-28T20:44:30.989Z,8.30
2018-09-28T20:46:58.994Z,8.30
2018-09-28T20:49:27.079Z,8.20
2018-09-28T20:51:55.116Z,8.10
2018-09-28T20:54:23.292Z,8.10
2018-09-28T20:56:51.316Z,8.00
2018-09-28T20:59:19.590Z,7.90
2018-09-28T21:01:47.624Z,7.80
2018-09-28T21:04:15.767Z,7.80
2018-09-28T21:06:43.705Z,7.70
2018-09-28T21:09:12.106Z,7.60
2018-09-28T21:11:40.160Z,7.60
2018-09-28T21:14:08.399Z,7.50
2018-09-28T21:16:36.365Z,7.40
2018-09-28T21:19:04.208Z,7.40
2018-09-28T21:21:32.793Z,7.40
2018-09-28T21:24:00.815Z,7.30
2018-09-28T21:26:28.662Z,7.30
2018-09-28T21:28:56.570Z,7.20
2018-09-28T21:31:24.527Z,7.20
2018-09-28T21:33:52.440Z,7.20
2018-09-28T21:36:20.331Z,7.10
2018-09-28T21:38:48.183Z,7.10
2018-09-28T21:41:16.134Z,7.10
2018-09-28T21:43:44.123Z,7.10
2018-09-28T21:46:12.071Z,7.00
2018-09-28T21:48:40.072Z,6.90
2018-09-28T21:51:08.051Z,6.80
2018-09-28T21:53:35.906Z,6.80
2018-09-28T21:56:03.678Z,6.70
2018-09-28T21:58:31.634Z,6.70
2018-09-28T22:00:59.696Z,6.70
2018-09-28T22:03:27.719Z,6.70
2018-09-28T22:05:55.639Z,6.60
2018-09-28T22:08:23.440Z,6.60
2018-09-28T22:10:51.473Z,6.60
2018-09-28T22:13:19.324Z,6.60
2018-09-28T22:15:47.484Z,6.50
2018-09-28T22:18:15.474Z,6.50
2018-09-28T22:20:43.433Z,6.40
2018-09-28T22:23:11.355Z,6.40
2018-09-28T22:25:39.314Z,6.40
2018-09-28T22:28:07.231Z,6.50
2018-09-28T22:30:35.161Z,6.40
2018-09-28T22:33:03.339Z,6.40
2018-09-28T22:35:31.446Z,6.30
2018-09-28T22:37:59.633Z,6.20
2018-09-28T22:40:27.635Z,6.20
2018-09-28T22:42:55.560Z,6.10
2018-09-28T22:45:23.478Z,6.00
2018-09-28T22:47:51.329Z,6.00
2018-09-28T22:50:19.376Z,6.00
2018-09-28T22:52:47.633Z,5.90
2018-09-28T22:55:18.068Z,5.90
2018-09-28T22:57:46.136Z,5.90
2018-09-28T23:00:13.929Z,5.90
2018-09-28T23:02:41.785Z,5.90
2018-09-28T23:05:09.646Z,5.90
2018-09-28T23:07:37.754Z,5.90
2018-09-28T23:10:05.994Z,5.80
2018-09-28T23:12:33.801Z,5.70
2018-09-28T23:15:01.549Z,5.70
2018-09-28T23:17:29.269Z,5.70
2018-09-28T23:19:57.101Z,5.70
2018-09-28T23:22:24.836Z,5.70
2018-09-28T23:24:52.705Z,5.70
2018-09-28T23:27:20.491Z,5.60
2018-09-28T23:29:48.613Z,5.60
2018-09-28T23:32:17.682Z,5.50
2018-09-28T23:34:45.774Z,5.40
2018-09-28T23:37:14.124Z,5.40
2018-09-28T23:39:41.935Z,5.40
2018-09-28T23:42:10.074Z,5.40
2018-09-28T23:44:38.170Z,5.40
2018-09-28T23:47:06.451Z,5.30
2018-09-28T23:49:34.348Z,5.30
2018-09-28T23:52:02.290Z,5.40
2018-09-28T23:54:30.615Z,5.30
2018-09-28T23:56:58.588Z,5.20
2018-09-28T23:59:26.755Z,5.20
